Terminal Aerodrome Forecast
Issued by NWS

Home | Current Version | Previous Version | Text Only | Print | Product List | Glossary On
Versions: 1 2 3 4 5 6 7 8 9 10 11 12
000
FTUS46 KLOX 232300
TAFPMD
TAF
KPMD 232338Z 2400/2424 24012KT P6SM SKC
     FM240300 23009KT P6SM SKC
     FM241300 VRB03KT P6SM SKC
     FM241800 24004KT P6SM SKC
     FM242100 26007KT P6SM SKC
     FM242300 24014KT P6SM SKC=

USA.gov is the U.S. government's official web portal to all federal, state and local government web resources and services.